sensor_id;sensor_type;location;lat;lon;timestamp;P1;durP1;ratioP1;P2;durP2;ratioP2
48951;SDS011;34758;42.148;24.744;2022-09-25T00:01:57;4.60;;;2.53;;
48951;SDS011;34758;42.148;24.744;2022-09-25T00:04:24;4.72;;;2.85;;
48951;SDS011;34758;42.148;24.744;2022-09-25T00:06:53;6.63;;;2.95;;
48951;SDS011;34758;42.148;24.744;2022-09-25T00:09:20;4.32;;;2.50;;
48951;SDS011;34758;42.148;24.744;2022-09-25T00:11:48;6.47;;;3.05;;
48951;SDS011;34758;42.148;24.744;2022-09-25T00:14:15;8.30;;;3.05;;
48951;SDS011;34758;42.148;24.744;2022-09-25T00:16:41;6.00;;;2.97;;
48951;SDS011;34758;42.148;24.744;2022-09-25T00:19:08;4.63;;;2.80;;
48951;SDS011;34758;42.148;24.744;2022-09-25T00:21:56;5.38;;;2.90;;
48951;SDS011;34758;42.148;24.744;2022-09-25T00:24:24;3.55;;;2.70;;
48951;SDS011;34758;42.148;24.744;2022-09-25T00:26:51;4.70;;;3.40;;
48951;SDS011;34758;42.148;24.744;2022-09-25T00:29:18;4.15;;;3.40;;
48951;SDS011;34758;42.148;24.744;2022-09-25T00:31:46;6.78;;;3.28;;
48951;SDS011;34758;42.148;24.744;2022-09-25T00:34:12;4.53;;;3.13;;
48951;SDS011;34758;42.148;24.744;2022-09-25T00:36:40;5.70;;;3.60;;
48951;SDS011;34758;42.148;24.744;2022-09-25T00:39:08;6.00;;;3.33;;
48951;SDS011;34758;42.148;24.744;2022-09-25T00:41:35;5.25;;;3.40;;
48951;SDS011;34758;42.148;24.744;2022-09-25T00:44:02;5.97;;;4.35;;
48951;SDS011;34758;42.148;24.744;2022-09-25T00:46:30;4.25;;;3.65;;
48951;SDS011;34758;42.148;24.744;2022-09-25T00:49:01;6.20;;;3.55;;
48951;SDS011;34758;42.148;24.744;2022-09-25T00:51:32;4.80;;;3.55;;
48951;SDS011;34758;42.148;24.744;2022-09-25T00:54:02;6.60;;;3.50;;
48951;SDS011;34758;42.148;24.744;2022-09-25T00:56:33;7.18;;;3.67;;
48951;SDS011;34758;42.148;24.744;2022-09-25T00:59:01;7.47;;;2.90;;
48951;SDS011;34758;42.148;24.744;2022-09-25T01:01:29;7.57;;;3.67;;
48951;SDS011;34758;42.148;24.744;2022-09-25T01:03:55;6.30;;;3.17;;
48951;SDS011;34758;42.148;24.744;2022-09-25T01:06:23;4.82;;;3.33;;
48951;SDS011;34758;42.148;24.744;2022-09-25T01:08:50;8.20;;;3.63;;
48951;SDS011;34758;42.148;24.744;2022-09-25T01:11:18;5.82;;;3.30;;
48951;SDS011;34758;42.148;24.744;2022-09-25T01:13:46;4.82;;;3.33;;
48951;SDS011;34758;42.148;24.744;2022-09-25T01:16:15;4.75;;;3.30;;
48951;SDS011;34758;42.148;24.744;2022-09-25T01:21:19;5.43;;;3.42;;
48951;SDS011;34758;42.148;24.744;2022-09-25T01:24:02;5.60;;;3.13;;
48951;SDS011;34758;42.148;24.744;2022-09-25T01:26:46;7.13;;;3.78;;
48951;SDS011;34758;42.148;24.744;2022-09-25T01:29:34;5.45;;;3.55;;
48951;SDS011;34758;42.148;24.744;2022-09-25T01:32:02;5.05;;;3.65;;
48951;SDS011;34758;42.148;24.744;2022-09-25T01:34:35;6.22;;;3.60;;
48951;SDS011;34758;42.148;24.744;2022-09-25T01:37:07;6.97;;;3.88;;
48951;SDS011;34758;42.148;24.744;2022-09-25T01:42:06;9.05;;;4.15;;
48951;SDS011;34758;42.148;24.744;2022-09-25T01:44:38;7.63;;;3.50;;
48951;SDS011;34758;42.148;24.744;2022-09-25T01:47:11;4.57;;;3.25;;
48951;SDS011;34758;42.148;24.744;2022-09-25T01:49:43;8.38;;;4.05;;
48951;SDS011;34758;42.148;24.744;2022-09-25T01:52:12;9.07;;;3.80;;
48951;SDS011;34758;42.148;24.744;2022-09-25T01:54:41;5.00;;;3.30;;
48951;SDS011;34758;42.148;24.744;2022-09-25T01:57:11;9.23;;;3.88;;
48951;SDS011;34758;42.148;24.744;2022-09-25T01:59:43;14.57;;;4.43;;
48951;SDS011;34758;42.148;24.744;2022-09-25T02:02:14;7.17;;;3.87;;
48951;SDS011;34758;42.148;24.744;2022-09-25T02:04:45;5.65;;;3.78;;
48951;SDS011;34758;42.148;24.744;2022-09-25T02:07:14;4.32;;;3.55;;
48951;SDS011;34758;42.148;24.744;2022-09-25T02:09:46;5.97;;;3.40;;
48951;SDS011;34758;42.148;24.744;2022-09-25T02:12:16;7.78;;;3.92;;
48951;SDS011;34758;42.148;24.744;2022-09-25T02:14:48;5.75;;;3.55;;
48951;SDS011;34758;42.148;24.744;2022-09-25T02:17:17;7.25;;;3.75;;
48951;SDS011;34758;42.148;24.744;2022-09-25T02:20:01;5.35;;;3.67;;
48951;SDS011;34758;42.148;24.744;2022-09-25T02:22:46;10.23;;;3.03;;
48951;SDS011;34758;42.148;24.744;2022-09-25T02:25:16;6.97;;;3.70;;
48951;SDS011;34758;42.148;24.744;2022-09-25T02:27:46;5.32;;;3.80;;
48951;SDS011;34758;42.148;24.744;2022-09-25T02:30:15;6.32;;;3.70;;
48951;SDS011;34758;42.148;24.744;2022-09-25T02:32:42;5.35;;;3.20;;
48951;SDS011;34758;42.148;24.744;2022-09-25T02:35:09;6.18;;;3.30;;
48951;SDS011;34758;42.148;24.744;2022-09-25T02:37:36;8.77;;;3.40;;
48951;SDS011;34758;42.148;24.744;2022-09-25T02:40:04;4.45;;;2.58;;
48951;SDS011;34758;42.148;24.744;2022-09-25T02:42:33;7.20;;;3.17;;
48951;SDS011;34758;42.148;24.744;2022-09-25T02:45:09;6.45;;;3.17;;
48951;SDS011;34758;42.148;24.744;2022-09-25T02:47:47;6.55;;;2.75;;
48951;SDS011;34758;42.148;24.744;2022-09-25T02:50:24;5.40;;;3.58;;
48951;SDS011;34758;42.148;24.744;2022-09-25T02:52:55;5.30;;;2.75;;
48951;SDS011;34758;42.148;24.744;2022-09-25T02:55:29;7.05;;;2.70;;
48951;SDS011;34758;42.148;24.744;2022-09-25T02:58:02;5.35;;;3.05;;
48951;SDS011;34758;42.148;24.744;2022-09-25T03:00:34;4.38;;;2.97;;
48951;SDS011;34758;42.148;24.744;2022-09-25T03:03:03;5.25;;;2.78;;
48951;SDS011;34758;42.148;24.744;2022-09-25T03:05:32;5.25;;;3.25;;
48951;SDS011;34758;42.148;24.744;2022-09-25T03:08:00;4.40;;;2.67;;
48951;SDS011;34758;42.148;24.744;2022-09-25T03:10:44;5.22;;;3.22;;
48951;SDS011;34758;42.148;24.744;2022-09-25T03:13:16;3.53;;;3.05;;
48951;SDS011;34758;42.148;24.744;2022-09-25T03:15:45;5.27;;;3.77;;
48951;SDS011;34758;42.148;24.744;2022-09-25T03:18:15;5.77;;;3.47;;
48951;SDS011;34758;42.148;24.744;2022-09-25T03:20:42;7.28;;;3.65;;
48951;SDS011;34758;42.148;24.744;2022-09-25T03:23:09;5.93;;;3.20;;
48951;SDS011;34758;42.148;24.744;2022-09-25T03:25:37;5.80;;;2.92;;
48951;SDS011;34758;42.148;24.744;2022-09-25T03:28:06;5.80;;;3.50;;
48951;SDS011;34758;42.148;24.744;2022-09-25T03:30:34;5.25;;;3.45;;
48951;SDS011;34758;42.148;24.744;2022-09-25T03:33:04;6.28;;;3.17;;
48951;SDS011;34758;42.148;24.744;2022-09-25T03:35:31;4.63;;;3.63;;
48951;SDS011;34758;42.148;24.744;2022-09-25T03:37:58;4.65;;;3.08;;
48951;SDS011;34758;42.148;24.744;2022-09-25T03:40:25;5.25;;;3.08;;
48951;SDS011;34758;42.148;24.744;2022-09-25T03:42:52;5.00;;;3.08;;
48951;SDS011;34758;42.148;24.744;2022-09-25T03:45:20;5.70;;;3.40;;
48951;SDS011;34758;42.148;24.744;2022-09-25T03:47:47;6.57;;;3.53;;
48951;SDS011;34758;42.148;24.744;2022-09-25T03:50:15;7.45;;;3.40;;
48951;SDS011;34758;42.148;24.744;2022-09-25T03:52:43;6.38;;;3.20;;
48951;SDS011;34758;42.148;24.744;2022-09-25T03:55:10;4.97;;;3.25;;
48951;SDS011;34758;42.148;24.744;2022-09-25T03:57:37;6.05;;;3.38;;
48951;SDS011;34758;42.148;24.744;2022-09-25T04:00:05;5.50;;;3.20;;
48951;SDS011;34758;42.148;24.744;2022-09-25T04:02:32;4.50;;;2.97;;
48951;SDS011;34758;42.148;24.744;2022-09-25T04:05:00;6.35;;;3.30;;
48951;SDS011;34758;42.148;24.744;2022-09-25T04:07:29;5.30;;;2.92;;
48951;SDS011;34758;42.148;24.744;2022-09-25T04:09:56;4.10;;;3.40;;
48951;SDS011;34758;42.148;24.744;2022-09-25T04:12:24;6.30;;;3.65;;
48951;SDS011;34758;42.148;24.744;2022-09-25T04:14:51;6.75;;;3.50;;
48951;SDS011;34758;42.148;24.744;2022-09-25T04:17:19;7.30;;;4.00;;
48951;SDS011;34758;42.148;24.744;2022-09-25T04:19:46;6.65;;;3.80;;
48951;SDS011;34758;42.148;24.744;2022-09-25T04:22:13;5.90;;;3.97;;
48951;SDS011;34758;42.148;24.744;2022-09-25T04:24:41;9.40;;;4.10;;
48951;SDS011;34758;42.148;24.744;2022-09-25T04:27:14;5.68;;;3.50;;
48951;SDS011;34758;42.148;24.744;2022-09-25T04:29:42;4.88;;;2.88;;
48951;SDS011;34758;42.148;24.744;2022-09-25T04:32:09;5.55;;;3.70;;
48951;SDS011;34758;42.148;24.744;2022-09-25T04:34:54;7.05;;;3.63;;
48951;SDS011;34758;42.148;24.744;2022-09-25T04:37:22;12.07;;;4.03;;
48951;SDS011;34758;42.148;24.744;2022-09-25T04:39:52;7.32;;;4.20;;
48951;SDS011;34758;42.148;24.744;2022-09-25T04:42:19;6.85;;;4.53;;
48951;SDS011;34758;42.148;24.744;2022-09-25T04:44:49;10.35;;;4.97;;
48951;SDS011;34758;42.148;24.744;2022-09-25T04:47:18;9.50;;;5.28;;
48951;SDS011;34758;42.148;24.744;2022-09-25T04:49:45;10.98;;;5.15;;
48951;SDS011;34758;42.148;24.744;2022-09-25T04:52:13;5.45;;;3.08;;
48951;SDS011;34758;42.148;24.744;2022-09-25T04:54:41;5.13;;;3.13;;
48951;SDS011;34758;42.148;24.744;2022-09-25T04:57:12;8.05;;;3.05;;
48951;SDS011;34758;42.148;24.744;2022-09-25T04:59:40;5.18;;;3.60;;
48951;SDS011;34758;42.148;24.744;2022-09-25T05:02:07;6.40;;;3.35;;
48951;SDS011;34758;42.148;24.744;2022-09-25T05:04:34;7.07;;;3.67;;
48951;SDS011;34758;42.148;24.744;2022-09-25T05:07:01;7.40;;;4.32;;
48951;SDS011;34758;42.148;24.744;2022-09-25T05:09:28;7.80;;;3.80;;
48951;SDS011;34758;42.148;24.744;2022-09-25T05:11:55;7.47;;;3.65;;
48951;SDS011;34758;42.148;24.744;2022-09-25T05:14:24;6.40;;;3.35;;
48951;SDS011;34758;42.148;24.744;2022-09-25T05:16:51;8.68;;;3.83;;
48951;SDS011;34758;42.148;24.744;2022-09-25T05:19:18;5.78;;;3.38;;
48951;SDS011;34758;42.148;24.744;2022-09-25T05:21:46;4.35;;;3.40;;
48951;SDS011;34758;42.148;24.744;2022-09-25T05:24:13;4.88;;;3.33;;
48951;SDS011;34758;42.148;24.744;2022-09-25T05:26:40;7.47;;;3.30;;
48951;SDS011;34758;42.148;24.744;2022-09-25T05:29:07;5.80;;;3.40;;
48951;SDS011;34758;42.148;24.744;2022-09-25T05:31:36;4.93;;;3.35;;
48951;SDS011;34758;42.148;24.744;2022-09-25T05:34:03;8.43;;;3.03;;
48951;SDS011;34758;42.148;24.744;2022-09-25T05:36:31;5.93;;;3.20;;
48951;SDS011;34758;42.148;24.744;2022-09-25T05:38:58;5.32;;;2.70;;
48951;SDS011;34758;42.148;24.744;2022-09-25T05:41:25;6.03;;;2.80;;
48951;SDS011;34758;42.148;24.744;2022-09-25T05:43:52;5.47;;;2.85;;
48951;SDS011;34758;42.148;24.744;2022-09-25T05:46:19;4.45;;;2.50;;
48951;SDS011;34758;42.148;24.744;2022-09-25T05:48:47;5.97;;;3.15;;
48951;SDS011;34758;42.148;24.744;2022-09-25T05:51:14;4.97;;;2.05;;
48951;SDS011;34758;42.148;24.744;2022-09-25T05:53:41;6.20;;;2.90;;
48951;SDS011;34758;42.148;24.744;2022-09-25T05:56:08;6.38;;;2.85;;
48951;SDS011;34758;42.148;24.744;2022-09-25T05:58:36;4.97;;;2.63;;
48951;SDS011;34758;42.148;24.744;2022-09-25T06:01:04;4.78;;;2.42;;
48951;SDS011;34758;42.148;24.744;2022-09-25T06:03:31;5.22;;;2.30;;
48951;SDS011;34758;42.148;24.744;2022-09-25T06:05:59;4.05;;;3.10;;
48951;SDS011;34758;42.148;24.744;2022-09-25T06:08:27;4.80;;;2.55;;
48951;SDS011;34758;42.148;24.744;2022-09-25T06:10:56;3.85;;;2.85;;
48951;SDS011;34758;42.148;24.744;2022-09-25T06:13:23;3.72;;;2.60;;
48951;SDS011;34758;42.148;24.744;2022-09-25T06:15:51;5.53;;;2.53;;
48951;SDS011;34758;42.148;24.744;2022-09-25T06:18:19;7.53;;;2.30;;
48951;SDS011;34758;42.148;24.744;2022-09-25T06:20:48;4.40;;;2.35;;
48951;SDS011;34758;42.148;24.744;2022-09-25T06:23:17;4.57;;;2.25;;
48951;SDS011;34758;42.148;24.744;2022-09-25T06:25:44;3.28;;;2.08;;
48951;SDS011;34758;42.148;24.744;2022-09-25T06:28:11;3.92;;;2.13;;
48951;SDS011;34758;42.148;24.744;2022-09-25T06:30:38;3.53;;;2.15;;
48951;SDS011;34758;42.148;24.744;2022-09-25T06:33:06;5.72;;;2.67;;
48951;SDS011;34758;42.148;24.744;2022-09-25T06:35:39;6.13;;;2.80;;
48951;SDS011;34758;42.148;24.744;2022-09-25T06:38:08;3.90;;;2.60;;
48951;SDS011;34758;42.148;24.744;2022-09-25T06:40:36;6.22;;;2.70;;
48951;SDS011;34758;42.148;24.744;2022-09-25T06:43:05;4.90;;;2.78;;
48951;SDS011;34758;42.148;24.744;2022-09-25T06:45:33;4.45;;;2.53;;
48951;SDS011;34758;42.148;24.744;2022-09-25T06:48:00;3.70;;;2.63;;
48951;SDS011;34758;42.148;24.744;2022-09-25T06:50:28;4.00;;;2.88;;
48951;SDS011;34758;42.148;24.744;2022-09-25T06:52:58;3.20;;;2.72;;
48951;SDS011;34758;42.148;24.744;2022-09-25T06:55:25;5.82;;;3.03;;
48951;SDS011;34758;42.148;24.744;2022-09-25T06:57:54;9.50;;;4.57;;
48951;SDS011;34758;42.148;24.744;2022-09-25T07:00:21;6.15;;;3.40;;
48951;SDS011;34758;42.148;24.744;2022-09-25T07:02:48;6.20;;;4.25;;
48951;SDS011;34758;42.148;24.744;2022-09-25T07:05:33;4.57;;;3.30;;
48951;SDS011;34758;42.148;24.744;2022-09-25T07:08:00;7.13;;;3.55;;
48951;SDS011;34758;42.148;24.744;2022-09-25T07:10:28;5.22;;;3.33;;
48951;SDS011;34758;42.148;24.744;2022-09-25T07:12:56;3.95;;;3.33;;
48951;SDS011;34758;42.148;24.744;2022-09-25T07:15:23;4.32;;;3.25;;
48951;SDS011;34758;42.148;24.744;2022-09-25T07:17:51;5.40;;;4.00;;
48951;SDS011;34758;42.148;24.744;2022-09-25T07:20:18;4.25;;;3.65;;
48951;SDS011;34758;42.148;24.744;2022-09-25T07:22:46;4.50;;;3.40;;
48951;SDS011;34758;42.148;24.744;2022-09-25T07:25:13;6.15;;;3.95;;
48951;SDS011;34758;42.148;24.744;2022-09-25T07:27:40;4.68;;;3.58;;
48951;SDS011;34758;42.148;24.744;2022-09-25T07:30:10;7.68;;;3.67;;
48951;SDS011;34758;42.148;24.744;2022-09-25T07:32:38;6.88;;;4.05;;
48951;SDS011;34758;42.148;24.744;2022-09-25T07:35:05;4.72;;;3.65;;
48951;SDS011;34758;42.148;24.744;2022-09-25T07:37:32;5.47;;;3.75;;
48951;SDS011;34758;42.148;24.744;2022-09-25T07:39:59;7.18;;;3.88;;
48951;SDS011;34758;42.148;24.744;2022-09-25T07:42:27;6.10;;;3.95;;
48951;SDS011;34758;42.148;24.744;2022-09-25T07:44:54;6.68;;;4.30;;
48951;SDS011;34758;42.148;24.744;2022-09-25T07:47:24;5.13;;;3.40;;
48951;SDS011;34758;42.148;24.744;2022-09-25T07:49:51;5.28;;;3.20;;
48951;SDS011;34758;42.148;24.744;2022-09-25T07:52:18;5.15;;;3.60;;
48951;SDS011;34758;42.148;24.744;2022-09-25T07:54:45;4.63;;;3.30;;
48951;SDS011;34758;42.148;24.744;2022-09-25T07:57:13;4.30;;;3.38;;
48951;SDS011;34758;42.148;24.744;2022-09-25T07:59:44;6.47;;;3.58;;
48951;SDS011;34758;42.148;24.744;2022-09-25T08:02:12;6.30;;;3.20;;
48951;SDS011;34758;42.148;24.744;2022-09-25T08:04:40;5.80;;;3.58;;
48951;SDS011;34758;42.148;24.744;2022-09-25T08:07:07;8.70;;;3.67;;
48951;SDS011;34758;42.148;24.744;2022-09-25T08:09:34;4.72;;;3.35;;
48951;SDS011;34758;42.148;24.744;2022-09-25T08:12:01;4.15;;;3.33;;
48951;SDS011;34758;42.148;24.744;2022-09-25T08:14:28;3.90;;;3.20;;
48951;SDS011;34758;42.148;24.744;2022-09-25T08:16:57;4.95;;;3.20;;
48951;SDS011;34758;42.148;24.744;2022-09-25T08:19:24;6.75;;;3.38;;
48951;SDS011;34758;42.148;24.744;2022-09-25T08:21:53;5.10;;;3.42;;
48951;SDS011;34758;42.148;24.744;2022-09-25T08:24:20;5.60;;;3.25;;
48951;SDS011;34758;42.148;24.744;2022-09-25T08:26:47;3.97;;;3.08;;
48951;SDS011;34758;42.148;24.744;2022-09-25T08:29:14;4.18;;;2.67;;
48951;SDS011;34758;42.148;24.744;2022-09-25T08:31:41;4.53;;;3.13;;
48951;SDS011;34758;42.148;24.744;2022-09-25T08:34:08;4.05;;;2.85;;
48951;SDS011;34758;42.148;24.744;2022-09-25T08:36:36;4.68;;;3.28;;
48951;SDS011;34758;42.148;24.744;2022-09-25T08:39:05;4.03;;;3.13;;
48951;SDS011;34758;42.148;24.744;2022-09-25T08:41:33;4.75;;;3.13;;
48951;SDS011;34758;42.148;24.744;2022-09-25T08:44:03;7.97;;;2.85;;
48951;SDS011;34758;42.148;24.744;2022-09-25T08:46:38;4.07;;;3.60;;
48951;SDS011;34758;42.148;24.744;2022-09-25T08:49:26;8.05;;;3.33;;
48951;SDS011;34758;42.148;24.744;2022-09-25T08:51:57;3.75;;;2.63;;
48951;SDS011;34758;42.148;24.744;2022-09-25T08:54:29;5.47;;;3.33;;
48951;SDS011;34758;42.148;24.744;2022-09-25T08:56:59;4.43;;;3.03;;
48951;SDS011;34758;42.148;24.744;2022-09-25T08:59:29;2.60;;;2.40;;
48951;SDS011;34758;42.148;24.744;2022-09-25T09:01:58;4.57;;;2.50;;
48951;SDS011;34758;42.148;24.744;2022-09-25T09:04:28;4.47;;;2.60;;
48951;SDS011;34758;42.148;24.744;2022-09-25T09:06:58;4.65;;;2.38;;
48951;SDS011;34758;42.148;24.744;2022-09-25T09:12:00;6.47;;;2.40;;
48951;SDS011;34758;42.148;24.744;2022-09-25T09:14:29;3.47;;;2.47;;
48951;SDS011;34758;42.148;24.744;2022-09-25T09:16:59;5.95;;;2.13;;
48951;SDS011;34758;42.148;24.744;2022-09-25T09:19:28;4.13;;;2.38;;
48951;SDS011;34758;42.148;24.744;2022-09-25T09:21:57;4.32;;;2.90;;
48951;SDS011;34758;42.148;24.744;2022-09-25T09:24:33;3.75;;;2.70;;
48951;SDS011;34758;42.148;24.744;2022-09-25T09:27:15;10.95;;;3.83;;
48951;SDS011;34758;42.148;24.744;2022-09-25T09:29:52;2.78;;;2.53;;
48951;SDS011;34758;42.148;24.744;2022-09-25T09:32:29;3.90;;;1.98;;
48951;SDS011;34758;42.148;24.744;2022-09-25T09:35:05;2.40;;;2.15;;
48951;SDS011;34758;42.148;24.744;2022-09-25T09:37:43;4.97;;;2.33;;
48951;SDS011;34758;42.148;24.744;2022-09-25T09:40:19;4.60;;;2.28;;
48951;SDS011;34758;42.148;24.744;2022-09-25T09:42:51;4.47;;;2.60;;
48951;SDS011;34758;42.148;24.744;2022-09-25T09:45:24;6.18;;;2.65;;
48951;SDS011;34758;42.148;24.744;2022-09-25T09:47:57;6.18;;;3.17;;
48951;SDS011;34758;42.148;24.744;2022-09-25T09:50:34;3.40;;;2.17;;
48951;SDS011;34758;42.148;24.744;2022-09-25T09:53:10;5.15;;;1.75;;
48951;SDS011;34758;42.148;24.744;2022-09-25T09:55:45;8.43;;;2.42;;
48951;SDS011;34758;42.148;24.744;2022-09-25T09:58:15;7.93;;;2.50;;
48951;SDS011;34758;42.148;24.744;2022-09-25T10:00:45;4.25;;;2.03;;
48951;SDS011;34758;42.148;24.744;2022-09-25T10:03:13;5.53;;;2.42;;
48951;SDS011;34758;42.148;24.744;2022-09-25T10:05:44;4.07;;;2.47;;
48951;SDS011;34758;42.148;24.744;2022-09-25T10:08:12;3.72;;;2.25;;
48951;SDS011;34758;42.148;24.744;2022-09-25T10:10:41;11.27;;;2.80;;
48951;SDS011;34758;42.148;24.744;2022-09-25T10:13:14;4.57;;;2.15;;
48951;SDS011;34758;42.148;24.744;2022-09-25T10:15:44;5.30;;;2.50;;
48951;SDS011;34758;42.148;24.744;2022-09-25T10:18:15;6.43;;;2.55;;
48951;SDS011;34758;42.148;24.744;2022-09-25T10:20:43;3.05;;;2.10;;
48951;SDS011;34758;42.148;24.744;2022-09-25T10:23:16;12.70;;;2.58;;
48951;SDS011;34758;42.148;24.744;2022-09-25T10:25:55;6.75;;;2.63;;
48951;SDS011;34758;42.148;24.744;2022-09-25T10:28:25;7.57;;;2.30;;
48951;SDS011;34758;42.148;24.744;2022-09-25T10:30:53;7.30;;;2.60;;
48951;SDS011;34758;42.148;24.744;2022-09-25T10:33:21;2.33;;;1.98;;
48951;SDS011;34758;42.148;24.744;2022-09-25T10:35:50;5.32;;;2.20;;
48951;SDS011;34758;42.148;24.744;2022-09-25T10:38:33;3.88;;;2.10;;
48951;SDS011;34758;42.148;24.744;2022-09-25T10:41:05;2.95;;;2.10;;
48951;SDS011;34758;42.148;24.744;2022-09-25T10:43:34;7.30;;;2.40;;
48951;SDS011;34758;42.148;24.744;2022-09-25T10:46:05;3.13;;;2.08;;
48951;SDS011;34758;42.148;24.744;2022-09-25T10:48:34;9.00;;;2.28;;
48951;SDS011;34758;42.148;24.744;2022-09-25T10:51:19;2.20;;;2.00;;
48951;SDS011;34758;42.148;24.744;2022-09-25T10:53:47;1.92;;;1.80;;
48951;SDS011;34758;42.148;24.744;2022-09-25T10:56:18;3.78;;;2.55;;
48951;SDS011;34758;42.148;24.744;2022-09-25T10:58:47;2.53;;;1.92;;
48951;SDS011;34758;42.148;24.744;2022-09-25T11:01:18;3.83;;;1.80;;
48951;SDS011;34758;42.148;24.744;2022-09-25T11:03:47;2.38;;;1.92;;
48951;SDS011;34758;42.148;24.744;2022-09-25T11:06:18;2.75;;;1.92;;
48951;SDS011;34758;42.148;24.744;2022-09-25T11:08:47;2.08;;;1.88;;
48951;SDS011;34758;42.148;24.744;2022-09-25T11:11:21;2.70;;;2.20;;
48951;SDS011;34758;42.148;24.744;2022-09-25T11:13:52;2.60;;;2.33;;
48951;SDS011;34758;42.148;24.744;2022-09-25T11:16:21;3.38;;;2.08;;
48951;SDS011;34758;42.148;24.744;2022-09-25T11:19:10;5.25;;;3.28;;
48951;SDS011;34758;42.148;24.744;2022-09-25T11:21:39;4.00;;;2.00;;
48951;SDS011;34758;42.148;24.744;2022-09-25T11:24:12;2.88;;;2.05;;
48951;SDS011;34758;42.148;24.744;2022-09-25T11:26:45;3.90;;;2.05;;
48951;SDS011;34758;42.148;24.744;2022-09-25T11:29:18;4.13;;;1.80;;
48951;SDS011;34758;42.148;24.744;2022-09-25T11:31:49;2.10;;;1.90;;
48951;SDS011;34758;42.148;24.744;2022-09-25T11:34:29;4.55;;;2.17;;
48951;SDS011;34758;42.148;24.744;2022-09-25T11:37:08;4.10;;;1.80;;
48951;SDS011;34758;42.148;24.744;2022-09-25T11:39:41;2.53;;;1.70;;
48951;SDS011;34758;42.148;24.744;2022-09-25T11:42:31;3.75;;;2.13;;
48951;SDS011;34758;42.148;24.744;2022-09-25T11:45:02;1.88;;;1.75;;
48951;SDS011;34758;42.148;24.744;2022-09-25T11:47:34;4.32;;;2.05;;
48951;SDS011;34758;42.148;24.744;2022-09-25T11:50:06;2.20;;;2.00;;
48951;SDS011;34758;42.148;24.744;2022-09-25T11:52:42;2.75;;;2.03;;
48951;SDS011;34758;42.148;24.744;2022-09-25T11:58:22;2.72;;;2.15;;
48951;SDS011;34758;42.148;24.744;2022-09-25T12:01:18;4.53;;;2.05;;
48951;SDS011;34758;42.148;24.744;2022-09-25T12:03:54;2.22;;;2.03;;
48951;SDS011;34758;42.148;24.744;2022-09-25T12:06:34;2.30;;;2.10;;
48951;SDS011;34758;42.148;24.744;2022-09-25T12:09:21;4.57;;;2.38;;
48951;SDS011;34758;42.148;24.744;2022-09-25T12:12:01;3.78;;;2.03;;
48951;SDS011;34758;42.148;24.744;2022-09-25T12:14:35;4.65;;;2.30;;
48951;SDS011;34758;42.148;24.744;2022-09-25T12:17:09;2.10;;;1.90;;
48951;SDS011;34758;42.148;24.744;2022-09-25T12:19:40;2.78;;;2.10;;
48951;SDS011;34758;42.148;24.744;2022-09-25T12:24:51;3.10;;;2.35;;
48951;SDS011;34758;42.148;24.744;2022-09-25T12:27:29;2.63;;;2.30;;
48951;SDS011;34758;42.148;24.744;2022-09-25T12:30:09;2.63;;;1.88;;
48951;SDS011;34758;42.148;24.744;2022-09-25T12:35:42;5.00;;;2.30;;
48951;SDS011;34758;42.148;24.744;2022-09-25T12:38:17;5.97;;;1.85;;
48951;SDS011;34758;42.148;24.744;2022-09-25T12:40:51;3.13;;;1.92;;
48951;SDS011;34758;42.148;24.744;2022-09-25T12:43:21;3.55;;;2.72;;
48951;SDS011;34758;42.148;24.744;2022-09-25T12:45:53;5.10;;;2.38;;
48951;SDS011;34758;42.148;24.744;2022-09-25T12:48:23;2.70;;;1.92;;
48951;SDS011;34758;42.148;24.744;2022-09-25T12:50:53;8.85;;;2.53;;
48951;SDS011;34758;42.148;24.744;2022-09-25T12:53:25;1.85;;;1.70;;
48951;SDS011;34758;42.148;24.744;2022-09-25T12:55:57;4.40;;;2.33;;
48951;SDS011;34758;42.148;24.744;2022-09-25T12:58:35;3.90;;;2.00;;
48951;SDS011;34758;42.148;24.744;2022-09-25T13:01:10;2.25;;;1.73;;
48951;SDS011;34758;42.148;24.744;2022-09-25T13:03:44;3.17;;;1.90;;
48951;SDS011;34758;42.148;24.744;2022-09-25T13:06:16;3.67;;;2.28;;
48951;SDS011;34758;42.148;24.744;2022-09-25T13:08:47;4.03;;;2.20;;
48951;SDS011;34758;42.148;24.744;2022-09-25T13:11:22;3.42;;;2.33;;
48951;SDS011;34758;42.148;24.744;2022-09-25T13:13:56;2.97;;;2.25;;
48951;SDS011;34758;42.148;24.744;2022-09-25T13:16:25;3.67;;;2.53;;
48951;SDS011;34758;42.148;24.744;2022-09-25T13:19:08;4.80;;;2.03;;
48951;SDS011;34758;42.148;24.744;2022-09-25T13:21:36;3.50;;;2.45;;
48951;SDS011;34758;42.148;24.744;2022-09-25T13:24:05;3.20;;;2.13;;
48951;SDS011;34758;42.148;24.744;2022-09-25T13:26:40;2.85;;;1.98;;
48951;SDS011;34758;42.148;24.744;2022-09-25T13:29:12;2.88;;;2.20;;
48951;SDS011;34758;42.148;24.744;2022-09-25T13:31:46;5.07;;;2.88;;
48951;SDS011;34758;42.148;24.744;2022-09-25T13:34:16;3.63;;;2.90;;
48951;SDS011;34758;42.148;24.744;2022-09-25T13:36:45;6.13;;;3.08;;
48951;SDS011;34758;42.148;24.744;2022-09-25T13:39:18;7.97;;;4.70;;
48951;SDS011;34758;42.148;24.744;2022-09-25T13:42:07;3.67;;;2.55;;
48951;SDS011;34758;42.148;24.744;2022-09-25T13:44:49;2.75;;;2.08;;
48951;SDS011;34758;42.148;24.744;2022-09-25T13:47:38;2.30;;;2.10;;
48951;SDS011;34758;42.148;24.744;2022-09-25T13:50:21;3.83;;;2.58;;
48951;SDS011;34758;42.148;24.744;2022-09-25T13:52:50;2.53;;;2.15;;
48951;SDS011;34758;42.148;24.744;2022-09-25T13:55:41;5.00;;;2.33;;
48951;SDS011;34758;42.148;24.744;2022-09-25T13:58:17;2.83;;;2.10;;
48951;SDS011;34758;42.148;24.744;2022-09-25T14:00:53;6.60;;;2.35;;
48951;SDS011;34758;42.148;24.744;2022-09-25T14:03:33;4.05;;;2.13;;
48951;SDS011;34758;42.148;24.744;2022-09-25T14:06:04;2.83;;;1.98;;
48951;SDS011;34758;42.148;24.744;2022-09-25T14:08:37;2.00;;;1.77;;
48951;SDS011;34758;42.148;24.744;2022-09-25T14:11:07;5.50;;;2.10;;
48951;SDS011;34758;42.148;24.744;2022-09-25T14:13:42;4.07;;;2.20;;
48951;SDS011;34758;42.148;24.744;2022-09-25T14:16:12;2.97;;;2.70;;
48951;SDS011;34758;42.148;24.744;2022-09-25T14:18:45;4.88;;;2.15;;
48951;SDS011;34758;42.148;24.744;2022-09-25T14:21:12;2.92;;;2.20;;
48951;SDS011;34758;42.148;24.744;2022-09-25T14:23:46;2.63;;;2.38;;
48951;SDS011;34758;42.148;24.744;2022-09-25T14:26:16;4.15;;;2.35;;
48951;SDS011;34758;42.148;24.744;2022-09-25T14:28:46;2.80;;;2.08;;
48951;SDS011;34758;42.148;24.744;2022-09-25T14:31:17;4.45;;;2.30;;
48951;SDS011;34758;42.148;24.744;2022-09-25T14:34:00;4.85;;;2.17;;
48951;SDS011;34758;42.148;24.744;2022-09-25T14:36:44;4.18;;;2.40;;
48951;SDS011;34758;42.148;24.744;2022-09-25T14:39:20;4.75;;;2.58;;
48951;SDS011;34758;42.148;24.744;2022-09-25T14:42:03;3.85;;;2.45;;
48951;SDS011;34758;42.148;24.744;2022-09-25T14:45:14;4.55;;;2.58;;
48951;SDS011;34758;42.148;24.744;2022-09-25T14:47:54;3.92;;;2.15;;
48951;SDS011;34758;42.148;24.744;2022-09-25T14:50:26;3.28;;;2.10;;
48951;SDS011;34758;42.148;24.744;2022-09-25T14:52:57;5.13;;;2.28;;
48951;SDS011;34758;42.148;24.744;2022-09-25T14:55:30;4.95;;;2.28;;
48951;SDS011;34758;42.148;24.744;2022-09-25T14:58:02;2.20;;;2.00;;
48951;SDS011;34758;42.148;24.744;2022-09-25T15:00:29;6.03;;;2.30;;
48951;SDS011;34758;42.148;24.744;2022-09-25T15:02:56;3.03;;;2.10;;
48951;SDS011;34758;42.148;24.744;2022-09-25T15:05:28;2.42;;;2.10;;
48951;SDS011;34758;42.148;24.744;2022-09-25T15:07:57;3.13;;;1.98;;
48951;SDS011;34758;42.148;24.744;2022-09-25T15:10:27;5.57;;;2.35;;
48951;SDS011;34758;42.148;24.744;2022-09-25T15:13:03;5.63;;;2.67;;